Time;durP1;ratioP1;P1;durP2;ratioP2;P2;SDS_P1;SDS_P2;PMS_P1;PMS_P2;Temp;Humidity;BMP_temperature;BMP_pressure;BME280_temperature;BME280_humidity;BME280_pressure;Samples;Min_cycle;Max_cycle;Signal;HPM_P1;HPM_P2
2022/03/26 00:01:05;;;;;;;40.63;18.37;;;;;;;7.19;65.48;102314.47;4995269;28;20216;-78
2022/03/26 00:03:31;;;;;;;29.80;18.00;;;;;;;7.14;65.21;102317.25;4994066;28;20207;-78
2022/03/26 00:05:59;;;;;;;36.50;18.97;;;;;;;7.14;65.89;102319.03;4995542;28;20265;-79
2022/03/26 00:08:25;;;;;;;35.97;18.80;;;;;;;7.11;65.87;102316.44;4995200;28;20222;-79
2022/03/26 00:10:52;;;;;;;33.67;17.87;;;;;;;7.07;65.47;102309.44;4995359;28;20420;-79
2022/03/26 00:13:20;;;;;;;34.37;18.50;;;;;;;6.97;65.40;102316.75;4995950;28;20210;-79
2022/03/26 00:15:48;;;;;;;35.77;18.90;;;;;;;6.86;65.24;102310.78;4995773;28;20231;-79
2022/03/26 00:18:17;;;;;;;36.80;18.40;;;;;;;6.75;64.83;102308.38;4996023;28;20234;-79
2022/03/26 00:20:44;;;;;;;34.53;18.17;;;;;;;6.68;65.22;102317.34;4996873;28;20230;-79
2022/03/26 00:23:11;;;;;;;31.70;17.80;;;;;;;6.60;65.35;102314.00;4996393;28;20214;-78
2022/03/26 00:25:37;;;;;;;33.13;18.03;;;;;;;6.54;65.38;102319.41;4995992;28;20227;-79
2022/03/26 00:28:04;;;;;;;36.57;19.17;;;;;;;6.49;65.85;102319.50;4995768;28;20230;-79
2022/03/26 00:30:32;;;;;;;38.27;20.30;;;;;;;6.43;65.90;102321.41;4995115;28;20208;-78
2022/03/26 00:32:59;;;;;;;42.87;19.00;;;;;;;6.37;65.66;102330.31;4995250;28;20211;-78
2022/03/26 00:35:26;;;;;;;42.47;19.93;;;;;;;6.29;66.21;102334.88;4995599;28;20250;-78
2022/03/26 00:37:53;;;;;;;37.73;18.90;;;;;;;6.24;66.34;102327.06;4995385;28;20227;-78
2022/03/26 00:40:20;;;;;;;35.87;19.33;;;;;;;6.20;66.52;102328.00;4995862;28;20216;-78
2022/03/26 00:42:47;;;;;;;35.23;17.90;;;;;;;6.19;67.07;102325.38;4995574;28;20208;-79
2022/03/26 00:45:13;;;;;;;38.90;16.80;;;;;;;6.19;67.72;102326.25;4995720;28;20242;-78
2022/03/26 00:47:40;;;;;;;30.43;15.80;;;;;;;6.22;68.20;102312.97;4995781;28;20203;-78
2022/03/26 00:50:10;;;;;;;27.03;16.73;;;;;;;6.26;68.03;102317.31;4995699;28;20282;-79
2022/03/26 00:52:37;;;;;;;31.73;16.73;;;;;;;6.26;68.05;102314.66;4994662;28;20261;-79
2022/03/26 00:55:04;;;;;;;30.67;17.37;;;;;;;6.22;67.52;102312.09;4995426;28;20227;-79
2022/03/26 00:57:31;;;;;;;31.80;18.40;;;;;;;6.13;67.16;102321.06;4994382;28;20294;-78
2022/03/26 00:59:58;;;;;;;34.83;18.50;;;;;;;6.04;67.18;102317.72;4994754;28;20680;-78
2022/03/26 01:02:24;;;;;;;41.07;19.50;;;;;;;5.96;67.46;102320.50;4994364;28;20218;-78
2022/03/26 01:04:51;;;;;;;35.83;18.60;;;;;;;5.89;67.48;102319.75;4994476;28;20729;-79
2022/03/26 01:07:19;;;;;;;34.23;19.30;;;;;;;5.86;67.90;102308.31;4994129;28;20793;-79
2022/03/26 01:09:45;;;;;;;36.47;18.13;;;;;;;5.82;68.17;102312.78;4994205;28;20202;-79
2022/03/26 01:12:13;;;;;;;37.70;18.20;;;;;;;5.79;68.27;102307.53;4993618;28;20215;-78
2022/03/26 01:14:39;;;;;;;39.13;18.33;;;;;;;5.77;68.50;102308.47;4993645;28;20219;-80
2022/03/26 01:17:07;;;;;;;34.17;18.73;;;;;;;5.77;68.91;102313.75;4994000;28;20218;-78
2022/03/26 01:19:34;;;;;;;34.80;18.80;;;;;;;5.76;69.35;102312.88;4992026;28;20227;-79
2022/03/26 01:22:00;;;;;;;34.83;20.80;;;;;;;5.76;69.30;102310.22;4994666;28;20680;-78
2022/03/26 01:24:28;;;;;;;36.90;19.07;;;;;;;5.76;69.44;102310.22;4994541;28;20212;-79
2022/03/26 01:26:55;;;;;;;38.03;18.73;;;;;;;5.76;69.76;102317.28;4995744;28;20222;-77
2022/03/26 01:29:21;;;;;;;35.17;17.70;;;;;;;5.75;69.64;102312.91;4995809;28;20227;-78
2022/03/26 01:31:48;;;;;;;30.47;17.07;;;;;;;5.70;69.83;102306.84;4994836;28;20218;-78
2022/03/26 01:34:14;;;;;;;31.90;17.30;;;;;;;5.65;69.49;102306.91;4995156;28;20295;-80
2022/03/26 01:36:41;;;;;;;32.63;17.20;;;;;;;5.63;69.65;102302.53;4995260;28;20289;-79
2022/03/26 01:39:08;;;;;;;35.33;18.47;;;;;;;5.61;69.66;102307.84;4994970;28;20239;-78
2022/03/26 01:41:36;;;;;;;31.43;17.33;;;;;;;5.59;69.81;102304.34;4995373;28;20218;-78
2022/03/26 01:44:03;;;;;;;30.87;16.93;;;;;;;5.56;70.13;102301.75;4995046;28;20646;-79
2022/03/26 01:46:45;;;;;;;29.07;16.40;;;;;;;5.50;69.94;102309.81;4994884;28;20314;-78
2022/03/26 01:49:12;;;;;;;31.13;17.40;;;;;;;5.48;70.03;102306.31;4995596;28;20188;-79
2022/03/26 01:51:38;;;;;;;31.37;17.40;;;;;;;5.44;69.91;102296.69;4995484;28;20207;-79
2022/03/26 01:54:05;;;;;;;31.47;17.33;;;;;;;5.42;70.04;102290.53;4995148;28;20210;-79
2022/03/26 01:56:31;;;;;;;30.20;16.90;;;;;;;5.41;70.14;102294.06;4995385;28;20235;-79
2022/03/26 01:59:00;;;;;;;31.27;16.50;;;;;;;5.39;70.36;102294.09;4995450;28;20249;-79
2022/03/26 02:01:26;;;;;;;28.50;16.67;;;;;;;5.38;70.25;102291.47;4995423;28;20211;-79
2022/03/26 02:03:53;;;;;;;27.93;14.47;;;;;;;5.34;70.09;102287.16;4996295;28;20799;-78
2022/03/26 02:06:22;;;;;;;26.00;15.53;;;;;;;5.26;69.85;102295.19;4995858;28;20235;-78
2022/03/26 02:08:49;;;;;;;28.10;15.53;;;;;;;5.19;69.78;102288.28;4994753;28;20208;-79
2022/03/26 02:11:15;;;;;;;26.63;14.90;;;;;;;5.11;69.35;102287.50;4996111;28;20211;-78
2022/03/26 02:13:48;;;;;;;30.83;14.53;;;;;;;5.05;69.87;102284.94;4996086;28;20651;-78
2022/03/26 02:16:16;;;;;;;25.87;14.80;;;;;;;4.99;69.50;102285.06;4996206;28;20223;-79
2022/03/26 02:18:43;;;;;;;28.50;15.53;;;;;;;4.95;69.90;102291.25;4996115;28;20227;-79
2022/03/26 02:21:11;;;;;;;25.70;14.40;;;;;;;4.88;69.73;102283.41;4995578;28;20302;-79
2022/03/26 02:23:38;;;;;;;30.10;15.47;;;;;;;4.85;69.94;102280.81;4995746;28;20211;-79
2022/03/26 02:26:05;;;;;;;28.97;15.93;;;;;;;4.83;70.24;102285.28;4995238;28;20231;-79
2022/03/26 02:28:32;;;;;;;32.63;15.07;;;;;;;4.82;70.60;102272.09;4995271;28;20215;-79
2022/03/26 02:30:58;;;;;;;31.00;15.97;;;;;;;4.80;70.71;102282.66;4996428;28;20225;-79
2022/03/26 02:33:25;;;;;;;24.93;15.10;;;;;;;4.79;70.90;102275.63;4996422;28;20207;-79
2022/03/26 02:35:51;;;;;;;32.93;16.10;;;;;;;4.76;71.35;102280.09;4995668;28;20235;-78
2022/03/26 02:38:19;;;;;;;27.10;15.20;;;;;;;4.71;70.92;102277.50;4996221;28;20227;-77
2022/03/26 02:40:46;;;;;;;24.60;15.20;;;;;;;4.67;70.95;102283.69;4995293;28;20212;-79
2022/03/26 02:43:13;;;;;;;32.57;15.77;;;;;;;4.60;70.42;102283.81;4995155;28;20218;-79
2022/03/26 02:45:44;;;;;;;28.60;15.47;;;;;;;4.47;70.88;102276.06;4995025;28;20223;-79
2022/03/26 02:48:12;;;;;;;29.03;15.60;;;;;;;4.37;70.58;102284.09;4994963;28;20222;-78
2022/03/26 02:50:39;;;;;;;31.53;15.80;;;;;;;4.27;70.28;102278.06;4994924;28;20219;-79
2022/03/26 02:53:06;;;;;;;29.37;15.60;;;;;;;4.21;71.14;102280.75;4994947;28;20210;-79
2022/03/26 02:55:35;;;;;;;27.77;15.27;;;;;;;4.16;71.15;102285.19;4994168;28;20224;-79
2022/03/26 02:58:01;;;;;;;26.07;14.80;;;;;;;4.12;71.28;102279.06;4994379;28;20258;-78
2022/03/26 03:00:28;;;;;;;32.03;15.67;;;;;;;4.09;71.59;102289.69;4994633;28;20211;-79
2022/03/26 03:02:54;;;;;;;27.27;15.87;;;;;;;4.06;71.57;102286.19;4994120;28;20214;-79
2022/03/26 03:05:21;;;;;;;27.63;15.27;;;;;;;4.02;71.56;102295.03;4994835;28;20689;-78
2022/03/26 03:07:48;;;;;;;28.00;15.60;;;;;;;3.98;72.06;102293.28;4994393;28;20727;-79
2022/03/26 03:10:16;;;;;;;27.37;14.80;;;;;;;3.96;71.77;102292.44;4994626;28;20214;-81
2022/03/26 03:12:46;;;;;;;29.23;15.17;;;;;;;3.94;71.82;102295.09;4994347;28;20768;-80
2022/03/26 03:15:14;;;;;;;32.03;16.50;;;;;;;3.89;72.52;102289.00;4994371;28;20227;-80
2022/03/26 03:17:42;;;;;;;28.33;16.67;;;;;;;3.85;72.70;102292.56;4994295;28;20670;-78
2022/03/26 03:20:10;;;;;;;31.17;16.07;;;;;;;3.81;72.13;102288.19;4994201;28;20627;-80
2022/03/26 03:22:37;;;;;;;30.50;15.47;;;;;;;3.81;72.91;102294.34;4993996;28;20218;-78
2022/03/26 03:25:05;;;;;;;30.83;15.97;;;;;;;3.79;72.98;102289.97;4994393;28;20232;-77
2022/03/26 03:27:31;;;;;;;32.93;16.37;;;;;;;3.73;72.40;102288.28;4994361;28;20207;-77
2022/03/26 03:29:59;;;;;;;31.73;16.43;;;;;;;3.70;72.44;102292.69;4994199;28;20227;-77
2022/03/26 03:32:26;;;;;;;29.27;16.37;;;;;;;3.67;73.10;102290.09;4995080;28;20206;-78
2022/03/26 03:34:53;;;;;;;26.53;15.07;;;;;;;3.61;72.95;102280.47;4994566;28;20233;-79
2022/03/26 03:37:20;;;;;;;30.70;16.53;;;;;;;3.58;72.87;102274.38;4993870;28;20204;-78
2022/03/26 03:39:46;;;;;;;30.03;15.60;;;;;;;3.55;72.63;102271.75;4998062;28;20661;-79
2022/03/26 03:42:13;;;;;;;30.80;15.80;;;;;;;3.52;73.06;102272.66;4998129;28;20215;-79
2022/03/26 03:44:40;;;;;;;38.20;17.93;;;;;;;3.47;73.44;102277.94;4998325;28;20207;-79
2022/03/26 03:47:08;;;;;;;34.13;16.23;;;;;;;3.43;73.63;102273.59;4998432;28;20207;-78
2022/03/26 03:49:35;;;;;;;39.90;17.90;;;;;;;3.41;73.40;102277.13;4998018;28;20214;-79
2022/03/26 03:52:04;;;;;;;34.97;17.70;;;;;;;3.39;73.96;102274.53;4998367;28;20588;-81
2022/03/26 03:54:30;;;;;;;35.13;17.73;;;;;;;3.33;72.75;102274.56;4997719;28;20214;-81
2022/03/26 03:56:57;;;;;;;31.10;16.73;;;;;;;3.26;72.53;102266.69;4997665;28;20215;-79
2022/03/26 03:59:23;;;;;;;29.70;15.80;;;;;;;3.20;73.32;102265.00;4998235;28;20756;-78
2022/03/26 04:01:50;;;;;;;37.77;16.87;;;;;;;3.16;73.50;102265.91;4998382;28;20218;-79
2022/03/26 04:04:18;;;;;;;36.37;18.80;;;;;;;3.13;73.25;102265.94;4997714;28;20210;-79
2022/03/26 04:06:45;;;;;;;35.03;18.40;;;;;;;3.11;73.10;102262.44;4997546;28;20228;-80
2022/03/26 04:09:11;;;;;;;34.17;17.67;;;;;;;3.10;73.66;102264.19;4997240;28;20213;-80
2022/03/26 04:11:38;;;;;;;34.87;18.33;;;;;;;3.10;73.62;102252.78;4997191;28;20207;-80
2022/03/26 04:14:06;;;;;;;35.37;17.60;;;;;;;3.10;74.29;102255.41;4996890;28;20211;-79
2022/03/26 04:16:32;;;;;;;33.33;17.77;;;;;;;3.06;73.91;102249.28;4996452;28;20223;-79
2022/03/26 04:18:59;;;;;;;33.43;16.80;;;;;;;3.04;73.82;102255.47;4995892;28;20657;-79
2022/03/26 04:21:27;;;;;;;37.63;17.93;;;;;;;2.99;73.82;102244.97;4996239;28;20211;-79
2022/03/26 04:23:53;;;;;;;36.60;17.67;;;;;;;2.97;73.72;102246.72;4996433;28;20215;-79
2022/03/26 04:26:21;;;;;;;36.23;18.93;;;;;;;2.96;74.15;102238.84;4996273;28;20318;-79
2022/03/26 04:28:47;;;;;;;42.63;19.80;;;;;;;2.95;74.95;102237.97;4996117;28;20207;-79
2022/03/26 04:31:14;;;;;;;38.13;20.07;;;;;;;2.95;74.57;102245.00;4994762;28;20207;-79
2022/03/26 04:33:40;;;;;;;44.23;22.20;;;;;;;2.96;75.16;102255.50;4994884;28;20214;-80
2022/03/26 04:36:07;;;;;;;39.27;19.40;;;;;;;2.94;74.67;102244.13;4995263;28;20702;-80
2022/03/26 04:38:36;;;;;;;40.17;19.83;;;;;;;2.91;74.59;102248.53;4995348;28;20748;-79
2022/03/26 04:41:03;;;;;;;36.47;19.53;;;;;;;2.88;74.67;102245.91;4995576;28;20680;-79
2022/03/26 04:43:29;;;;;;;43.27;19.20;;;;;;;2.85;74.84;102251.22;4995068;28;20211;-80
2022/03/26 04:45:56;;;;;;;39.87;18.87;;;;;;;2.83;75.03;102245.06;4994786;28;20228;-79
2022/03/26 04:48:22;;;;;;;41.47;19.37;;;;;;;2.81;75.37;102254.72;4994483;28;20674;-79
2022/03/26 04:50:49;;;;;;;39.73;19.03;;;;;;;2.78;75.04;102253.88;4994144;28;20215;-78
2022/03/26 04:53:15;;;;;;;45.13;21.13;;;;;;;2.76;75.16;102252.13;4994772;28;20230;-78
2022/03/26 04:55:43;;;;;;;41.30;19.20;;;;;;;2.73;75.58;102253.00;4994444;28;20239;-79
2022/03/26 04:58:10;;;;;;;40.73;18.93;;;;;;;2.74;75.01;102259.16;4995101;28;20290;-79
2022/03/26 05:00:36;;;;;;;39.23;20.00;;;;;;;2.71;75.72;102256.53;4994867;28;20661;-79
2022/03/26 05:03:03;;;;;;;40.43;18.73;;;;;;;2.66;75.28;102258.34;5005427;28;20234;-79
2022/03/26 05:05:29;;;;;;;34.03;17.83;;;;;;;2.64;74.91;102266.22;5014265;28;20313;-79
2022/03/26 05:07:59;;;;;;;37.97;17.97;;;;;;;2.59;75.07;102262.72;5014584;28;20218;-78
2022/03/26 05:10:28;;;;;;;38.07;19.20;;;;;;;2.56;75.69;102273.25;5014082;28;20290;-79
2022/03/26 05:12:58;;;;;;;38.27;18.70;;;;;;;2.54;75.33;102280.28;5014561;28;20209;-79
2022/03/26 05:15:27;;;;;;;39.43;20.57;;;;;;;2.52;75.99;102281.16;5014195;28;20238;-80
2022/03/26 05:17:54;;;;;;;44.10;19.60;;;;;;;2.51;76.26;102287.34;5014293;28;20218;-79
2022/03/26 05:20:21;;;;;;;43.70;19.90;;;;;;;2.50;76.60;102298.72;5014428;28;20258;-80
2022/03/26 05:22:49;;;;;;;42.13;19.23;;;;;;;2.50;75.88;102291.72;5014836;28;20298;-79
2022/03/26 05:25:16;;;;;;;47.97;20.00;;;;;;;2.49;76.15;102283.84;5014212;28;20230;-79
2022/03/26 05:27:44;;;;;;;41.83;19.93;;;;;;;2.49;76.30;102291.72;5006074;28;20204;-80
2022/03/26 05:30:13;;;;;;;41.90;19.30;;;;;;;2.50;76.90;102298.72;4995181;28;20199;-80
2022/03/26 05:32:40;;;;;;;34.53;17.07;;;;;;;2.51;76.32;102301.31;4994233;28;20666;-79
2022/03/26 05:35:11;;;;;;;45.77;21.60;;;;;;;2.50;76.98;102293.47;4995278;28;20712;-79
2022/03/26 05:37:38;;;;;;;50.37;22.40;;;;;;;2.52;77.46;102303.06;4995381;28;20670;-80
2022/03/26 05:40:07;;;;;;;47.93;21.93;;;;;;;2.53;76.96;102307.47;4995141;28;20238;-79
2022/03/26 05:42:33;;;;;;;44.13;19.70;;;;;;;2.56;77.44;102303.94;4995193;28;20214;-79
2022/03/26 05:45:00;;;;;;;40.27;19.73;;;;;;;2.56;76.98;102299.56;4994870;28;20625;-79
2022/03/26 05:47:28;;;;;;;41.77;20.93;;;;;;;2.58;76.97;102297.81;4995159;28;20203;-78
2022/03/26 05:49:55;;;;;;;47.53;22.57;;;;;;;2.60;77.78;102303.94;4995619;28;20210;-78
2022/03/26 05:52:21;;;;;;;40.07;18.20;;;;;;;2.64;77.93;102305.69;4995956;28;20716;-78
2022/03/26 05:54:48;;;;;;;38.53;18.90;;;;;;;2.66;77.37;102305.69;4995441;28;20310;-78
2022/03/26 05:57:14;;;;;;;36.80;18.60;;;;;;;2.67;77.34;102313.56;4995446;28;20212;-79
2022/03/26 05:59:41;;;;;;;40.90;19.50;;;;;;;2.72;77.63;102310.88;4995488;28;20969;-79
2022/03/26 06:02:10;;;;;;;38.83;19.00;;;;;;;2.76;77.63;102310.88;4994909;28;20235;-79
2022/03/26 06:04:38;;;;;;;39.87;19.00;;;;;;;2.81;78.49;102315.25;4995363;28;20211;-79
2022/03/26 06:07:08;;;;;;;38.20;19.27;;;;;;;2.86;77.90;102310.84;4994649;28;20212;-79
2022/03/26 06:09:34;;;;;;;41.50;19.23;;;;;;;2.89;78.10;102314.31;4994922;28;20192;-79
2022/03/26 06:12:01;;;;;;;37.20;18.43;;;;;;;2.95;78.86;102321.31;4994969;28;20204;-78
2022/03/26 06:14:28;;;;;;;42.83;19.47;;;;;;;2.99;78.58;102325.69;4994237;28;20298;-79
2022/03/26 06:16:55;;;;;;;47.80;21.77;;;;;;;3.06;78.41;102324.75;4994588;28;20262;-78
2022/03/26 06:19:21;;;;;;;49.63;22.47;;;;;;;3.11;78.75;102326.47;4994402;28;20227;-79
2022/03/26 06:21:49;;;;;;;43.10;20.97;;;;;;;3.21;79.12;102337.84;4994252;28;20218;-79
2022/03/26 06:24:16;;;;;;;47.63;22.10;;;;;;;3.28;79.48;102342.16;4994776;28;20654;-79
2022/03/26 06:26:44;;;;;;;49.20;21.93;;;;;;;3.37;79.79;102351.78;4985813;28;20230;-80
2022/03/26 06:29:12;;;;;;;45.57;22.60;;;;;;;3.43;80.01;102355.22;4993026;28;20250;-79
2022/03/26 06:31:38;;;;;;;45.00;21.17;;;;;;;3.51;79.31;102352.56;4997736;28;20199;-80
2022/03/26 06:34:05;;;;;;;54.17;23.47;;;;;;;3.58;80.25;102354.28;4993063;28;20639;-80
2022/03/26 06:36:33;;;;;;;50.97;22.83;;;;;;;3.65;79.56;102360.34;5005396;28;20242;-81
2022/03/26 06:39:01;;;;;;;44.97;23.87;;;;;;;3.73;79.82;102366.44;4989539;28;20283;-81
2022/03/26 06:41:28;;;;;;;50.20;23.23;;;;;;;3.79;79.93;102358.47;4991533;28;20227;-81
2022/03/26 06:43:55;;;;;;;44.37;23.13;;;;;;;3.87;79.78;102355.78;4994084;28;20359;-82
2022/03/26 06:46:21;;;;;;;52.97;23.97;;;;;;;3.94;80.23;102358.34;4992789;28;20223;-82
2022/03/26 06:48:48;;;;;;;49.87;23.60;;;;;;;4.03;80.63;102358.28;4991991;28;20299;-82
2022/03/26 06:51:14;;;;;;;50.03;23.77;;;;;;;4.11;80.22;102359.09;4996082;28;20285;-81
2022/03/26 06:53:41;;;;;;;51.37;23.57;;;;;;;4.21;80.98;102361.63;5002159;28;20221;-81
2022/03/26 06:56:09;;;;;;;51.03;24.53;;;;;;;4.34;81.50;102353.56;4998853;28;20237;-80
2022/03/26 06:58:36;;;;;;;56.87;24.97;;;;;;;4.49;81.13;102352.53;5004978;28;20206;-82
2022/03/26 07:01:03;;;;;;;56.60;25.43;;;;;;;4.68;82.17;102361.97;5002203;28;20223;-81
2022/03/26 07:03:30;;;;;;;59.00;26.80;;;;;;;4.86;81.94;102366.16;4996605;28;20219;-82
2022/03/26 07:05:57;;;;;;;57.37;25.20;;;;;;;5.04;81.46;102365.06;4995852;28;20289;-82
2022/03/26 07:08:23;;;;;;;50.10;23.43;;;;;;;5.20;81.47;102356.91;4997300;28;20567;-82
2022/03/26 07:10:50;;;;;;;44.30;23.83;;;;;;;5.38;81.36;102360.16;4997130;28;20212;-82
2022/03/26 07:13:17;;;;;;;57.70;23.63;;;;;;;5.54;80.81;102362.59;4997038;28;20208;-82
2022/03/26 07:15:44;;;;;;;57.13;25.67;;;;;;;5.69;80.35;102358.84;4996995;28;20228;-80
2022/03/26 07:18:15;;;;;;;56.00;23.87;;;;;;;5.85;79.73;102354.16;5003191;28;20206;-80
2022/03/26 07:20:42;;;;;;;48.63;24.70;;;;;;;6.03;79.32;102359.19;5001752;28;20230;-81
2022/03/26 07:23:08;;;;;;;54.20;23.83;;;;;;;6.17;78.80;102361.56;5004120;28;20199;-82
2022/03/26 07:25:35;;;;;;;51.70;24.77;;;;;;;6.31;78.60;102353.38;5000072;28;20227;-81
2022/03/26 07:28:02;;;;;;;52.80;24.63;;;;;;;6.44;78.19;102346.97;5007776;28;20199;-82
2022/03/26 07:30:30;;;;;;;46.17;22.57;;;;;;;6.57;77.88;102349.34;5016066;28;20211;-82
2022/03/26 07:32:57;;;;;;;50.60;24.37;;;;;;;6.72;77.50;102355.22;5005649;28;20801;-83
2022/03/26 07:35:24;;;;;;;50.07;24.00;;;;;;;6.85;76.62;102349.66;5001948;28;20229;-80
2022/03/26 07:37:50;;;;;;;47.53;24.00;;;;;;;7.00;76.33;102344.91;4996070;28;20698;-82
2022/03/26 07:40:17;;;;;;;54.93;24.23;;;;;;;7.14;75.95;102342.88;5005774;28;20584;-82
2022/03/26 07:42:43;;;;;;;54.17;24.27;;;;;;;7.30;76.13;102338.97;4995065;28;20222;-80
2022/03/26 07:45:12;;;;;;;52.47;23.00;;;;;;;7.48;76.08;102338.53;5000841;28;20229;-80
2022/03/26 07:47:40;;;;;;;54.73;22.77;;;;;;;7.65;75.47;102346.09;5001389;28;20453;-81
2022/03/26 07:50:08;;;;;;;47.37;22.67;;;;;;;7.83;74.80;102342.09;4991854;28;20203;-81
2022/03/26 07:52:36;;;;;;;53.03;23.03;;;;;;;8.01;74.46;102342.50;5002857;28;20204;-81
2022/03/26 07:55:02;;;;;;;46.13;23.07;;;;;;;8.19;73.50;102338.50;4998051;28;20231;-82
2022/03/26 07:57:29;;;;;;;47.10;22.23;;;;;;;8.35;73.61;102337.22;4997645;28;20208;-81
2022/03/26 07:59:55;;;;;;;49.80;23.13;;;;;;;8.54;72.77;102339.34;4996602;28;20231;-81
2022/03/26 08:02:24;;;;;;;41.33;21.80;;;;;;;8.71;72.05;102326.47;5000213;28;20199;-82
2022/03/26 08:04:55;;;;;;;47.47;23.10;;;;;;;8.90;71.26;102325.00;5000919;28;20235;-82
2022/03/26 08:07:22;;;;;;;44.00;21.60;;;;;;;9.11;71.03;102331.47;4995122;28;20222;-82
2022/03/26 08:09:48;;;;;;;48.53;23.40;;;;;;;9.29;70.71;102333.56;4994595;28;20235;-82
2022/03/26 08:12:15;;;;;;;42.53;20.97;;;;;;;9.46;69.70;102332.16;4995272;28;20265;-82
2022/03/26 08:14:42;;;;;;;44.10;21.37;;;;;;;9.62;69.22;102344.91;4994931;28;20591;-82
2022/03/26 08:17:09;;;;;;;43.27;22.50;;;;;;;9.79;68.74;102349.69;4994854;28;20602;-82
2022/03/26 08:19:36;;;;;;;40.57;22.13;;;;;;;9.93;67.89;102341.22;4998062;28;20206;-82
2022/03/26 08:22:04;;;;;;;38.70;21.03;;;;;;;10.12;67.15;102349.47;5002662;28;20641;-82
2022/03/26 08:24:31;;;;;;;40.83;20.50;;;;;;;10.29;67.05;102353.31;4994034;28;20220;-83
2022/03/26 08:26:57;;;;;;;35.57;19.43;;;;;;;10.50;66.95;102350.81;5003211;28;20211;-80
2022/03/26 08:29:24;;;;;;;38.30;20.93;;;;;;;10.66;66.24;102350.19;4995249;28;20222;-81
2022/03/26 08:31:51;;;;;;;38.93;20.90;;;;;;;10.85;65.78;102353.06;4994644;28;20672;-80
2022/03/26 08:34:18;;;;;;;33.33;19.73;;;;;;;11.01;65.10;102346.22;4995572;28;20204;-80
2022/03/26 08:36:44;;;;;;;39.23;20.80;;;;;;;11.18;64.16;102347.34;4996812;28;20229;-81
2022/03/26 08:39:12;;;;;;;39.83;20.90;;;;;;;11.30;63.90;102349.53;4992591;28;20234;-81
2022/03/26 08:41:39;;;;;;;38.03;20.80;;;;;;;11.44;63.77;102347.22;4992591;28;20242;-81
2022/03/26 08:44:06;;;;;;;38.07;19.67;;;;;;;11.59;62.90;102356.41;4997224;28;20236;-82
2022/03/26 08:46:34;;;;;;;39.07;21.13;;;;;;;11.71;62.73;102355.88;4995080;28;20255;-81
2022/03/26 08:49:00;;;;;;;33.40;20.83;;;;;;;11.83;62.80;102361.63;4994145;28;20637;-81
2022/03/26 08:51:27;;;;;;;40.13;21.30;;;;;;;11.96;61.81;102350.44;4994459;28;20528;-82
2022/03/26 08:53:53;;;;;;;35.80;20.30;;;;;;;12.08;61.30;102361.47;5003229;28;20203;-82
2022/03/26 08:56:21;;;;;;;35.77;20.83;;;;;;;12.17;60.80;102365.56;4994724;28;20740;-82
2022/03/26 08:58:48;;;;;;;33.77;20.37;;;;;;;12.27;60.82;102361.56;5002505;28;20233;-82
2022/03/26 09:01:15;;;;;;;34.40;20.93;;;;;;;12.39;60.83;102368.16;5006377;28;20230;-82
2022/03/26 09:03:43;;;;;;;37.73;21.10;;;;;;;12.52;60.71;102364.91;5014049;28;20258;-82
2022/03/26 09:06:11;;;;;;;41.13;20.80;;;;;;;12.63;60.54;102353.72;4994748;28;20260;-82
2022/03/26 09:08:38;;;;;;;38.30;21.57;;;;;;;12.69;59.40;102350.78;4991291;28;20329;-81
2022/03/26 09:11:05;;;;;;;34.77;20.37;;;;;;;12.81;59.73;102357.38;4974741;28;20300;-81
2022/03/26 09:13:34;;;;;;;35.93;19.70;;;;;;;12.94;59.37;102355.84;4974666;28;20697;-81
2022/03/26 09:16:01;;;;;;;34.93;20.37;;;;;;;13.09;58.81;102363.16;4974383;28;20427;-82
2022/03/26 09:18:28;;;;;;;33.90;18.53;;;;;;;13.21;58.28;102356.44;4974657;28;20707;-81
2022/03/26 09:20:56;;;;;;;28.33;17.10;;;;;;;13.31;57.44;102352.34;4992594;28;20593;-83
2022/03/26 09:23:22;;;;;;;26.13;16.37;;;;;;;13.40;56.80;102353.75;4995446;28;20781;-82
2022/03/26 09:25:49;;;;;;;29.93;17.90;;;;;;;13.52;55.99;102356.69;4994303;28;20250;-82
2022/03/26 09:28:15;;;;;;;22.83;15.20;;;;;;;13.62;55.32;102356.22;4994262;28;20300;-83
2022/03/26 09:30:43;;;;;;;24.57;16.67;;;;;;;13.73;54.93;102349.41;4994472;28;20203;-81
2022/03/26 09:33:10;;;;;;;22.93;14.60;;;;;;;13.88;54.35;102356.69;4993378;28;20208;-83
2022/03/26 09:35:36;;;;;;;27.13;16.60;;;;;;;14.00;53.58;102357.00;4992599;28;20235;-81
2022/03/26 09:38:03;;;;;;;26.30;16.27;;;;;;;14.12;52.96;102351.91;4992781;28;20226;-82
2022/03/26 09:40:32;;;;;;;27.33;15.97;;;;;;;14.23;52.84;102352.22;4993148;28;20698;-81
2022/03/26 09:42:59;;;;;;;28.30;17.40;;;;;;;14.34;52.18;102351.63;4993078;28;20314;-81
2022/03/26 09:45:25;;;;;;;29.87;17.77;;;;;;;14.43;52.18;102345.84;4992670;28;20231;-82
2022/03/26 09:47:54;;;;;;;26.67;16.97;;;;;;;14.55;51.61;102342.50;4993021;28;20221;-82
2022/03/26 09:50:21;;;;;;;32.43;17.67;;;;;;;14.65;51.90;102328.63;4994374;28;20208;-83
2022/03/26 09:52:49;;;;;;;28.23;16.70;;;;;;;14.76;51.38;102337.81;4993700;28;20613;-82
2022/03/26 09:55:19;;;;;;;25.17;16.30;;;;;;;14.88;51.35;102330.91;4993521;28;20230;-81
2022/03/26 09:57:48;;;;;;;29.17;16.97;;;;;;;14.94;50.57;102331.44;4993880;28;20625;-81
2022/03/26 10:00:16;;;;;;;30.10;18.43;;;;;;;14.99;50.23;102331.19;4993325;28;20207;-82
2022/03/26 10:02:42;;;;;;;29.33;18.83;;;;;;;15.05;50.15;102322.78;4993127;28;20200;-82
2022/03/26 10:05:12;;;;;;;29.67;18.27;;;;;;;15.14;50.55;102329.47;5004117;28;20243;-81
2022/03/26 10:07:39;;;;;;;27.87;18.33;;;;;;;15.17;50.32;102324.81;5012839;28;20223;-80
2022/03/26 10:10:07;;;;;;;29.30;17.90;;;;;;;15.19;50.28;102324.72;5013259;28;20218;-81
2022/03/26 10:12:34;;;;;;;28.07;18.30;;;;;;;15.20;50.44;102313.91;4978387;28;20204;-81
2022/03/26 10:15:04;;;;;;;25.73;17.63;;;;;;;15.20;50.46;102316.59;4973475;28;20236;-81
2022/03/26 10:17:32;;;;;;;25.27;16.87;;;;;;;15.24;50.76;102317.25;4973637;28;20209;-81
2022/03/26 10:20:01;;;;;;;25.87;16.83;;;;;;;15.27;50.74;102307.22;4973175;28;20210;-80
2022/03/26 10:22:35;;;;;;;27.23;17.47;;;;;;;15.35;50.96;102314.84;4972980;28;20731;-81
2022/03/26 10:25:05;;;;;;;29.60;16.83;;;;;;;15.42;50.75;102312.66;4973587;28;20233;-81
2022/03/26 10:27:37;;;;;;;25.30;17.27;;;;;;;15.46;50.23;102316.91;4973107;28;20856;-81
2022/03/26 10:30:05;;;;;;;25.60;17.23;;;;;;;15.54;50.88;102310.16;4973495;28;20204;-81
2022/03/26 10:32:45;;;;;;;25.90;16.13;;;;;;;15.61;50.33;102306.19;4972239;28;20639;-82
2022/03/26 10:35:15;;;;;;;26.40;15.60;;;;;;;15.71;50.45;102311.03;4972548;28;20239;-80
2022/03/26 10:37:56;;;;;;;22.73;14.87;;;;;;;15.78;50.08;102302.50;4972617;28;20555;-82
2022/03/26 10:40:28;;;;;;;20.27;14.27;;;;;;;15.85;50.17;102305.69;4973473;28;20263;-81
2022/03/26 10:43:00;;;;;;;23.87;14.10;;;;;;;15.93;49.73;102304.31;4973473;28;20210;-81
2022/03/26 10:45:28;;;;;;;22.10;14.77;;;;;;;16.00;49.76;102304.78;4972976;28;20228;-82
2022/03/26 10:47:56;;;;;;;20.87;15.07;;;;;;;16.05;48.88;102297.31;4974284;28;20210;-82
2022/03/26 10:50:22;;;;;;;24.03;15.47;;;;;;;16.07;48.49;102300.78;4977799;28;20583;-82
2022/03/26 10:52:54;;;;;;;24.10;14.97;;;;;;;16.11;48.81;102298.78;4977903;28;20210;-81
2022/03/26 10:55:22;;;;;;;22.60;15.30;;;;;;;16.15;48.54;102297.63;4977908;28;20673;-82
2022/03/26 10:57:49;;;;;;;23.07;15.57;;;;;;;16.21;48.50;102295.44;4976377;28;20290;-82
2022/03/26 11:00:18;;;;;;;25.40;16.23;;;;;;;16.23;48.42;102292.66;4975766;28;20657;-81
2022/03/26 11:02:45;;;;;;;25.97;15.93;;;;;;;16.25;48.64;102296.97;4977423;28;20235;-82
2022/03/26 11:05:13;;;;;;;23.07;15.60;;;;;;;16.26;48.32;102287.97;4976504;28;20237;-81
2022/03/26 11:07:41;;;;;;;23.77;17.20;;;;;;;16.32;48.47;102292.06;4976163;28;20223;-81
2022/03/26 11:10:11;;;;;;;22.17;15.93;;;;;;;16.35;48.12;102297.28;4976710;28;20209;-82
2022/03/26 11:12:43;;;;;;;26.07;15.60;;;;;;;16.33;47.98;102283.91;4977447;28;20212;-82
2022/03/26 11:15:14;;;;;;;21.93;16.07;;;;;;;16.36;48.01;102285.56;4976424;28;20238;-82